createdAt,value
2023-01-09T00:00:44.639Z,2.08
2023-01-09T00:06:57.588Z,1.60
2023-01-09T00:13:08.178Z,1.60
2023-01-09T00:19:21.763Z,1.20
2023-01-09T00:25:34.530Z,1.70
2023-01-09T00:31:48.397Z,1.22
2023-01-09T00:37:56.297Z,1.17
2023-01-09T00:44:10.678Z,1.40
2023-01-09T00:50:23.697Z,1.75
2023-01-09T00:56:39.729Z,1.65
2023-01-09T01:02:50.940Z,1.55
2023-01-09T01:09:02.295Z,1.80
2023-01-09T01:15:15.415Z,1.77
2023-01-09T01:21:32.017Z,1.52
2023-01-09T01:39:59.563Z,2.22
2023-01-09T01:46:11.069Z,1.67
2023-01-09T01:52:21.757Z,1.80
2023-01-09T01:58:34.332Z,2.22
2023-01-09T02:04:46.044Z,1.82
2023-01-09T02:10:59.700Z,1.50
2023-01-09T02:17:14.592Z,1.57
2023-01-09T02:24:17.455Z,1.90
2023-01-09T02:30:37.671Z,1.40
2023-01-09T02:36:50.093Z,1.67
2023-01-09T02:43:04.708Z,1.35
2023-01-09T02:49:17.750Z,1.30
2023-01-09T02:55:42.281Z,1.45
2023-01-09T03:01:55.130Z,1.52
2023-01-09T03:08:10.869Z,1.32
2023-01-09T03:14:20.565Z,1.62
2023-01-09T03:20:35.341Z,1.52
2023-01-09T03:26:45.493Z,1.70
2023-01-09T03:32:59.276Z,1.90
2023-01-09T03:39:13.997Z,1.52
2023-01-09T03:45:29.131Z,1.85
2023-01-09T03:51:43.262Z,1.50
2023-01-09T03:57:54.636Z,2.15
2023-01-09T04:04:07.163Z,2.00
2023-01-09T04:10:24.781Z,2.05
2023-01-09T04:16:37.009Z,1.90
2023-01-09T04:22:50.299Z,1.72
2023-01-09T04:29:03.861Z,2.72
2023-01-09T04:35:17.371Z,2.33
2023-01-09T04:41:45.562Z,1.92
2023-01-09T04:47:58.897Z,2.02
2023-01-09T04:54:11.559Z,2.15
2023-01-09T05:00:22.919Z,1.80
2023-01-09T05:06:33.298Z,2.17
2023-01-09T05:12:43.033Z,2.12
2023-01-09T05:18:57.468Z,1.95
2023-01-09T05:25:10.156Z,2.22
2023-01-09T05:31:23.885Z,1.87
2023-01-09T05:37:35.889Z,2.40
2023-01-09T05:43:46.249Z,1.85
2023-01-09T05:49:58.600Z,2.20
2023-01-09T05:56:10.121Z,1.87
2023-01-09T06:02:20.762Z,2.52
2023-01-09T06:08:32.028Z,2.15
2023-01-09T06:14:42.292Z,2.55
2023-01-09T06:20:53.643Z,1.75
2023-01-09T06:27:03.460Z,2.10
2023-01-09T06:33:11.015Z,2.45
2023-01-09T06:39:21.859Z,1.72
2023-01-09T06:45:33.137Z,2.17
2023-01-09T06:51:42.661Z,2.58
2023-01-09T06:57:51.668Z,2.45
2023-01-09T07:04:01.288Z,1.60
2023-01-09T07:10:11.152Z,2.17
2023-01-09T07:16:21.544Z,2.08
2023-01-09T07:22:32.070Z,1.90
2023-01-09T07:28:43.497Z,2.45
2023-01-09T07:34:52.273Z,2.20
2023-01-09T07:41:04.769Z,2.42
2023-01-09T07:47:15.749Z,2.27
2023-01-09T07:53:25.170Z,2.40
2023-01-09T07:59:35.634Z,2.47
2023-01-09T08:05:44.079Z,2.75
2023-01-09T08:11:52.195Z,2.75
2023-01-09T08:18:03.421Z,2.20
2023-01-09T08:24:12.499Z,2.40
2023-01-09T08:30:22.908Z,2.25
2023-01-09T08:36:34.707Z,2.37
2023-01-09T08:43:04.025Z,2.40
2023-01-09T08:49:13.233Z,2.17
2023-01-09T08:55:23.145Z,2.20
2023-01-09T09:01:33.398Z,1.67
2023-01-09T09:07:43.618Z,2.52
2023-01-09T09:13:54.494Z,1.87
2023-01-09T09:20:05.848Z,2.55
2023-01-09T09:26:14.141Z,2.60
2023-01-09T09:32:21.835Z,2.40
2023-01-09T09:38:29.684Z,1.67
2023-01-09T09:44:55.033Z,1.90
2023-01-09T09:51:53.529Z,1.95
2023-01-09T09:58:03.331Z,2.22
2023-01-09T10:04:16.207Z,2.30
2023-01-09T10:10:27.462Z,1.85
2023-01-09T10:16:45.938Z,1.95
2023-01-09T10:22:56.124Z,1.80
2023-01-09T10:36:05.845Z,1.93
2023-01-09T10:42:20.357Z,1.47
2023-01-09T10:48:32.487Z,2.17
2023-01-09T10:54:42.992Z,2.02
2023-01-09T11:00:52.624Z,1.98
2023-01-09T11:07:06.423Z,2.00
2023-01-09T11:19:41.414Z,1.57
2023-01-09T11:25:55.098Z,1.25
2023-01-09T11:32:08.480Z,1.37
2023-01-09T11:38:18.831Z,1.12
2023-01-09T11:44:26.933Z,1.50
2023-01-09T11:50:40.264Z,1.80
2023-01-09T11:56:48.919Z,1.92
2023-01-09T12:03:06.364Z,1.50
2023-01-09T12:09:16.039Z,1.40
2023-01-09T12:15:29.342Z,1.20
2023-01-09T12:21:40.491Z,1.00
2023-01-09T12:28:04.122Z,1.27
2023-01-09T12:34:21.596Z,1.32
2023-01-09T12:40:46.629Z,1.00
2023-01-09T12:46:58.576Z,0.90
2023-01-09T12:53:11.939Z,1.05
2023-01-09T12:59:33.195Z,1.10
2023-01-09T13:05:44.215Z,1.00
2023-01-09T13:11:58.670Z,0.70
2023-01-09T13:18:13.502Z,0.85
2023-01-09T13:24:22.435Z,0.80
2023-01-09T13:30:58.706Z,1.00
2023-01-09T13:37:08.922Z,1.10
2023-01-09T13:43:24.006Z,0.70
2023-01-09T13:50:11.320Z,1.07
2023-01-09T13:56:25.463Z,0.70
2023-01-09T14:09:34.465Z,1.20
2023-01-09T14:15:46.085Z,0.85
2023-01-09T14:21:57.251Z,0.95
2023-01-09T14:28:30.399Z,1.00
2023-01-09T14:34:41.089Z,1.07
2023-01-09T14:40:53.247Z,1.20
2023-01-09T14:47:04.435Z,1.15
2023-01-09T14:53:17.594Z,0.75
2023-01-09T14:59:29.457Z,0.53
2023-01-09T15:05:41.779Z,0.93
2023-01-09T15:11:53.045Z,1.15
2023-01-09T15:18:07.471Z,1.00
2023-01-09T15:24:25.075Z,0.93
2023-01-09T15:30:38.131Z,0.90
2023-01-09T15:36:52.112Z,0.70
2023-01-09T15:43:03.701Z,1.35
2023-01-09T15:49:15.894Z,0.98
2023-01-09T15:55:39.133Z,1.52
2023-01-09T16:01:54.273Z,1.10
2023-01-09T16:08:03.574Z,0.78
2023-01-09T16:14:21.163Z,0.90
2023-01-09T16:20:36.030Z,0.80
2023-01-09T16:26:45.900Z,0.55
2023-01-09T16:32:53.618Z,1.05
2023-01-09T16:39:04.260Z,1.20
2023-01-09T16:45:19.796Z,1.07
2023-01-09T16:51:32.730Z,1.22
2023-01-09T16:57:42.589Z,0.93
2023-01-09T17:03:53.145Z,1.50
2023-01-09T17:10:05.342Z,1.05
2023-01-09T17:16:22.347Z,0.90
2023-01-09T17:28:52.277Z,0.90
2023-01-09T17:35:00.254Z,1.82
2023-01-09T17:41:10.165Z,1.75
2023-01-09T17:47:21.103Z,1.57
2023-01-09T17:53:34.042Z,1.35
2023-01-09T17:59:45.126Z,1.10
2023-01-09T18:05:54.431Z,1.50
2023-01-09T18:12:05.919Z,1.37
2023-01-09T18:18:14.877Z,1.52
2023-01-09T18:24:25.055Z,2.45
2023-01-09T18:30:35.407Z,1.62
2023-01-09T18:36:46.030Z,1.32
2023-01-09T18:42:53.905Z,1.20
2023-01-09T18:49:04.217Z,1.60
2023-01-09T18:55:17.993Z,1.35
2023-01-09T19:01:30.020Z,1.45
2023-01-09T19:07:37.937Z,1.27
2023-01-09T19:13:47.539Z,1.12
2023-01-09T19:20:03.831Z,1.10
2023-01-09T19:26:19.581Z,1.25
2023-01-09T19:32:31.467Z,1.30
2023-01-09T19:38:44.836Z,1.30
2023-01-09T19:44:58.212Z,1.27
2023-01-09T19:51:11.689Z,1.15
2023-01-09T19:57:25.402Z,1.12
2023-01-09T20:03:40.341Z,0.88
2023-01-09T20:09:52.869Z,1.32
2023-01-09T20:16:07.887Z,1.05
2023-01-09T20:22:26.713Z,1.45
2023-01-09T20:28:43.116Z,4.30
2023-01-09T20:35:05.884Z,1.32
2023-01-09T20:41:25.638Z,2.33
2023-01-09T20:47:45.068Z,1.40
2023-01-09T20:54:03.388Z,1.42
2023-01-09T21:00:30.091Z,1.55
2023-01-09T21:06:43.206Z,1.27
2023-01-09T21:12:55.858Z,1.60
2023-01-09T21:19:08.244Z,1.42
2023-01-09T21:25:18.081Z,1.20
2023-01-09T21:31:34.458Z,1.35
2023-01-09T21:44:10.030Z,1.53
2023-01-09T21:50:22.740Z,1.87
2023-01-09T21:56:34.353Z,1.55
2023-01-09T22:02:45.389Z,1.57
2023-01-09T22:08:58.099Z,1.50
2023-01-09T22:15:09.595Z,1.10
2023-01-09T22:21:21.955Z,1.55
2023-01-09T22:27:32.815Z,1.32
2023-01-09T22:33:44.056Z,1.42
2023-01-09T22:39:55.483Z,1.50
2023-01-09T22:46:11.482Z,1.27
2023-01-09T22:52:22.085Z,1.35
2023-01-09T22:58:32.819Z,1.47
2023-01-09T23:04:42.557Z,1.52
2023-01-09T23:10:52.846Z,1.07
2023-01-09T23:17:03.932Z,1.42
2023-01-09T23:23:15.399Z,2.50
2023-01-09T23:29:25.366Z,1.40
2023-01-09T23:35:35.171Z,1.60
2023-01-09T23:42:05.936Z,1.72
2023-01-09T23:48:20.547Z,2.55
2023-01-09T23:54:29.241Z,1.70
